Time;durP1;ratioP1;P1;durP2;ratioP2;P2;SDS_P1;SDS_P2;PMS_P1;PMS_P2;Temp;Humidity;BMP_temperature;BMP_pressure;BME280_temperature;BME280_humidity;BME280_pressure;Samples;Min_cycle;Max_cycle;Signal;HPM_P1;HPM_P2
2023/04/12 00:00:23;;;;;;;;;;;7.90;99.90;;;;;;5013598;28;135730;-71
2023/04/12 00:02:52;;;;;;;;;;;7.90;99.90;;;;;;5057086;28;19920;-73
2023/04/12 00:05:25;;;;;;;;;;;7.90;99.90;;;;;;4984789;28;213469;-72
2023/04/12 00:07:52;;;;;;;;;;;7.90;99.90;;;;;;5043293;28;20555;-71
2023/04/12 00:10:18;;;;;;;;;;;7.90;99.90;;;;;;5007567;28;227718;-72
2023/04/12 00:12:45;;;;;;;;;;;7.90;99.90;;;;;;5045235;28;19929;-72
2023/04/12 00:15:11;;;;;;;;;;;7.90;99.90;;;;;;5016697;28;218223;-71
2023/04/12 00:17:40;;;;;;;;;;;8.00;99.90;;;;;;5061477;28;20007;-72
2023/04/12 00:20:11;;;;;;;;;;;8.00;99.90;;;;;;5008622;28;219081;-71
2023/04/12 00:22:37;;;;;;;;;;;8.00;99.90;;;;;;5065305;28;19924;-72
2023/04/12 00:25:04;;;;;;;;;;;7.90;99.90;;;;;;5007056;28;207100;-71
2023/04/12 00:27:29;;;;;;;;;;;8.00;99.90;;;;;;5079785;28;19924;-71
2023/04/12 00:29:55;;;;;;;;;;;8.00;99.90;;;;;;5023517;28;210773;-69
2023/04/12 00:32:21;;;;;;;;;;;8.10;99.90;;;;;;5046280;28;19934;-71
2023/04/12 00:34:47;;;;;;;;;;;8.10;99.90;;;;;;5059008;28;20450;-72
2023/04/12 00:37:13;;;;;;;;;;;8.10;99.90;;;;;;5023539;28;206108;-73
2023/04/12 00:39:39;;;;;;;;;;;8.10;99.90;;;;;;5061910;28;20458;-72
2023/04/12 00:42:05;;;;;;;;;;;8.10;99.90;;;;;;5012985;28;214893;-72
2023/04/12 00:44:31;;;;;;;;;;;8.10;99.90;;;;;;5065428;28;19920;-71
2023/04/12 00:47:02;;;;;;;;;;;8.10;99.90;;;;;;5010929;28;207255;-72
2023/04/12 00:49:29;;;;;;;;;;;8.20;99.90;;;;;;5073269;28;19924;-71
2023/04/12 00:52:05;;;;;;;;;;;8.20;99.90;;;;;;4995444;28;210509;-73
2023/04/12 00:54:35;;;;;;;;;;;8.20;99.90;;;;;;5062978;28;19924;-72
2023/04/12 00:57:01;;;;;;;;;;;8.20;99.90;;;;;;5019675;28;207220;-71
2023/04/12 00:59:27;;;;;;;;;;;8.20;99.90;;;;;;5060276;28;19931;-72
2023/04/12 01:01:56;;;;;;;;;;;8.20;99.90;;;;;;5022539;28;208018;-72
2023/04/12 01:04:25;;;;;;;;;;;8.20;99.90;;;;;;5065843;28;19924;-72
2023/04/12 01:07:14;;;;;;;;;;;8.20;99.90;;;;;;4988454;28;206194;-73
2023/04/12 01:09:59;;;;;;;;;;;8.20;99.90;;;;;;5075987;28;19920;-71
2023/04/12 01:12:40;;;;;;;;;;;8.30;99.90;;;;;;5011832;28;121162;-71
2023/04/12 01:15:06;;;;;;;;;;;8.30;99.90;;;;;;5004775;28;208569;-72
2023/04/12 01:17:37;;;;;;;;;;;8.30;99.90;;;;;;5073783;28;20420;-73
2023/04/12 01:20:15;;;;;;;;;;;8.40;99.90;;;;;;5021849;28;210001;-71
2023/04/12 01:22:54;;;;;;;;;;;8.40;99.90;;;;;;5063954;28;19931;-72
2023/04/12 01:25:38;;;;;;;;;;;8.40;99.90;;;;;;5009810;28;228856;-71
2023/04/12 01:28:04;;;;;;;;;;;8.50;99.90;;;;;;5068510;28;19932;-72
2023/04/12 01:30:31;;;;;;;;;;;8.50;99.90;;;;;;5009867;28;207137;-72
2023/04/12 01:32:59;;;;;;;;;;;8.50;99.90;;;;;;5070086;28;19925;-73
2023/04/12 01:35:26;;;;;;;;;;;8.40;99.90;;;;;;5013333;28;227110;-73
2023/04/12 01:37:53;;;;;;;;;;;8.50;99.90;;;;;;5071765;28;20377;-72
2023/04/12 01:40:22;;;;;;;;;;;8.50;99.90;;;;;;5010738;28;207978;-73
2023/04/12 01:42:51;;;;;;;;;;;8.50;99.90;;;;;;5072530;28;19924;-72
2023/04/12 01:45:16;;;;;;;;;;;8.50;99.90;;;;;;5005293;28;206550;-72
2023/04/12 01:47:43;;;;;;;;;;;8.50;99.90;;;;;;5070049;28;20404;-73
2023/04/12 01:50:15;;;;;;;;;;;8.60;99.90;;;;;;5009112;28;206289;-72
2023/04/12 01:52:44;;;;;;;;;;;8.60;99.90;;;;;;5053734;28;19928;-71
2023/04/12 01:55:11;;;;;;;;;;;8.60;99.90;;;;;;5020029;28;227015;-72
2023/04/12 01:57:38;;;;;;;;;;;8.60;99.90;;;;;;5060444;28;19935;-72
2023/04/12 02:00:06;;;;;;;;;;;8.60;99.90;;;;;;5008100;28;207546;-72
2023/04/12 02:02:34;;;;;;;;;;;8.60;99.90;;;;;;5071859;28;19936;-72
2023/04/12 02:05:00;;;;;;;;;;;8.60;99.90;;;;;;5008136;28;209872;-70
2023/04/12 02:07:26;;;;;;;;;;;8.60;99.90;;;;;;5057997;28;103474;-73
2023/04/12 02:09:52;;;;;;;;;;;8.60;99.90;;;;;;5048972;28;216836;-71
2023/04/12 02:12:21;;;;;;;;;;;8.60;99.90;;;;;;5013064;28;231323;-72
2023/04/12 02:14:50;;;;;;;;;;;8.60;99.90;;;;;;5065221;28;20598;-72
2023/04/12 02:17:16;;;;;;;;;;;8.50;99.90;;;;;;4984137;28;191059;-73
2023/04/12 02:19:42;;;;;;;;;;;8.60;99.90;;;;;;5077248;28;19924;-71
2023/04/12 02:22:08;;;;;;;;;;;8.50;99.90;;;;;;5013111;28;155231;-73
2023/04/12 02:24:34;;;;;;;;;;;8.50;99.90;;;;;;5061909;28;20415;-72
2023/04/12 02:27:00;;;;;;;;;;;8.50;99.90;;;;;;5011558;28;249172;-73
2023/04/12 02:29:26;;;;;;;;;;;8.50;99.90;;;;;;5063535;28;19924;-72
2023/04/12 02:31:52;;;;;;;;;;;8.50;99.90;;;;;;5001996;28;207635;-73
2023/04/12 02:34:19;;;;;;;;;;;8.50;99.90;;;;;;5066382;28;20047;-73
2023/04/12 02:36:46;;;;;;;;;;;8.50;99.90;;;;;;5009562;28;227993;-73
2023/04/12 02:39:12;;;;;;;;;;;8.50;99.90;;;;;;5061459;28;19928;-72
2023/04/12 02:41:38;;;;;;;;;;;8.40;99.90;;;;;;5009389;28;214938;-74
2023/04/12 02:44:04;;;;;;;;;;;8.50;99.90;;;;;;5058552;28;19925;-73
2023/04/12 02:46:30;;;;;;;;;;;8.40;99.90;;;;;;5008724;28;215842;-72
2023/04/12 02:48:56;;;;;;;;;;;8.40;99.90;;;;;;5062382;28;20649;-73
2023/04/12 02:51:22;;;;;;;;;;;8.40;99.90;;;;;;5003436;28;206503;-72
2023/04/12 02:53:48;;;;;;;;;;;8.30;99.90;;;;;;5062741;28;20503;-73
2023/04/12 02:56:14;;;;;;;;;;;8.30;99.90;;;;;;5018580;28;212095;-73
2023/04/12 02:58:40;;;;;;;;;;;8.30;99.90;;;;;;5067717;28;19927;-73
2023/04/12 03:01:06;;;;;;;;;;;8.30;99.90;;;;;;5000758;28;206757;-72
2023/04/12 03:03:33;;;;;;;;;;;8.30;99.90;;;;;;5058734;28;19920;-72
2023/04/12 03:05:59;;;;;;;;;;;8.30;99.90;;;;;;4978556;28;221694;-73
2023/04/12 03:08:24;;;;;;;;;;;8.30;99.90;;;;;;5044559;28;19934;-72
2023/04/12 03:10:50;;;;;;;;;;;8.30;99.90;;;;;;5014365;28;196153;-72
2023/04/12 03:13:16;;;;;;;;;;;8.30;99.90;;;;;;5063600;28;19924;-71
2023/04/12 03:15:42;;;;;;;;;;;8.40;99.90;;;;;;5024070;28;225175;-72
2023/04/12 03:18:08;;;;;;;;;;;8.40;99.90;;;;;;5074170;28;20529;-71
2023/04/12 03:20:34;;;;;;;;;;;8.30;99.90;;;;;;5015182;28;184482;-71
2023/04/12 03:23:00;;;;;;;;;;;8.30;99.90;;;;;;5072928;28;19926;-71
2023/04/12 03:25:26;;;;;;;;;;;8.30;99.90;;;;;;5000492;28;218668;-72
2023/04/12 03:27:52;;;;;;;;;;;8.30;99.90;;;;;;5073391;28;19925;-71
2023/04/12 03:30:18;;;;;;;;;;;8.30;99.90;;;;;;5006996;28;212804;-72
2023/04/12 03:32:44;;;;;;;;;;;8.40;99.90;;;;;;5050751;28;19933;-71
2023/04/12 03:35:10;;;;;;;;;;;8.40;99.90;;;;;;5002702;28;204762;-72
2023/04/12 03:37:39;;;;;;;;;;;8.40;99.90;;;;;;5061844;28;20417;-72
2023/04/12 03:40:06;;;;;;;;;;;8.40;99.90;;;;;;5009624;28;205035;-72
2023/04/12 03:42:32;;;;;;;;;;;8.40;99.90;;;;;;5076991;28;19923;-72
2023/04/12 03:44:57;;;;;;;;;;;8.40;99.90;;;;;;5010005;28;211446;-71
2023/04/12 03:47:23;;;;;;;;;;;8.40;99.90;;;;;;5046445;28;19927;-72
2023/04/12 03:49:49;;;;;;;;;;;8.40;99.90;;;;;;5063503;28;19932;-72
2023/04/12 03:52:15;;;;;;;;;;;8.40;99.90;;;;;;5011805;28;208934;-72
2023/04/12 03:54:41;;;;;;;;;;;8.40;99.90;;;;;;5063191;28;19925;-72
2023/04/12 03:57:07;;;;;;;;;;;8.40;99.90;;;;;;4974430;28;1335215;-72
2023/04/12 03:59:33;;;;;;;;;;;8.30;99.90;;;;;;5068013;28;20448;-72
2023/04/12 04:02:00;;;;;;;;;;;8.30;99.90;;;;;;5014495;28;233260;-71
2023/04/12 04:04:26;;;;;;;;;;;8.30;99.90;;;;;;5069638;28;20355;-72
2023/04/12 04:06:52;;;;;;;;;;;8.40;99.90;;;;;;4988199;28;222545;-72
2023/04/12 04:09:18;;;;;;;;;;;8.30;99.90;;;;;;5066359;28;20297;-71
2023/04/12 04:11:45;;;;;;;;;;;8.40;99.90;;;;;;5013567;28;204351;-73
2023/04/12 04:14:12;;;;;;;;;;;8.30;99.90;;;;;;5027062;28;19932;-72
2023/04/12 04:16:40;;;;;;;;;;;8.30;99.90;;;;;;4988926;28;214594;-72
2023/04/12 04:19:06;;;;;;;;;;;8.30;99.90;;;;;;5047649;28;19928;-71
2023/04/12 04:21:32;;;;;;;;;;;8.30;99.90;;;;;;4983996;28;206662;-72
2023/04/12 04:24:00;;;;;;;;;;;8.20;99.90;;;;;;5043082;28;20282;-72
2023/04/12 04:26:32;;;;;;;;;;;8.20;99.90;;;;;;4994454;28;209855;-73
2023/04/12 04:29:00;;;;;;;;;;;8.20;99.90;;;;;;5039870;28;19950;-73
2023/04/12 04:31:32;;;;;;;;;;;8.20;99.90;;;;;;4987846;28;209488;-73
2023/04/12 04:34:04;;;;;;;;;;;8.20;99.90;;;;;;5035429;28;19925;-73
2023/04/12 04:36:33;;;;;;;;;;;8.10;99.90;;;;;;4969625;28;183554;-70
2023/04/12 04:39:00;;;;;;;;;;;8.10;99.90;;;;;;5036430;28;19944;-71
2023/04/12 04:41:26;;;;;;;;;;;8.10;99.90;;;;;;5005122;28;210571;-72
2023/04/12 04:43:53;;;;;;;;;;;8.10;99.90;;;;;;5047749;28;19931;-72
2023/04/12 04:46:20;;;;;;;;;;;8.00;99.90;;;;;;5004063;28;209670;-72
2023/04/12 04:48:48;;;;;;;;;;;8.10;99.90;;;;;;5061827;28;19955;-71
2023/04/12 04:51:14;;;;;;;;;;;8.00;99.90;;;;;;5008148;28;240914;-70
2023/04/12 04:53:40;;;;;;;;;;;8.00;99.90;;;;;;5068687;28;19924;-70
2023/04/12 04:56:06;;;;;;;;;;;7.90;99.90;;;;;;5014711;28;215085;-71
2023/04/12 04:58:32;;;;;;;;;;;7.90;99.90;;;;;;5047715;28;20309;-73
2023/04/12 05:00:58;;;;;;;;;;;7.90;99.90;;;;;;4991723;28;205552;-73
2023/04/12 05:03:27;;;;;;;;;;;7.90;99.90;;;;;;5039165;28;20028;-72
2023/04/12 05:05:55;;;;;;;;;;;7.90;99.90;;;;;;5010595;28;207814;-74
2023/04/12 05:08:22;;;;;;;;;;;7.90;99.90;;;;;;5062463;28;19928;-73
2023/04/12 05:10:53;;;;;;;;;;;7.80;99.90;;;;;;4971636;28;216546;-75
2023/04/12 05:13:21;;;;;;;;;;;7.80;99.90;;;;;;5058557;28;19927;-76
2023/04/12 05:15:47;;;;;;;;;;;7.80;99.90;;;;;;5004377;28;210677;-77
2023/04/12 05:18:13;;;;;;;;;;;7.70;99.90;;;;;;5044032;28;19921;-76
2023/04/12 05:20:40;;;;;;;;;;;7.80;99.90;;;;;;5018760;28;208294;-76
2023/04/12 05:23:08;;;;;;;;;;;7.80;99.90;;;;;;5075562;28;19920;-77
2023/04/12 05:25:34;;;;;;;;;;;7.80;99.90;;;;;;5007767;28;206174;-76
2023/04/12 05:28:00;;;;;;;;;;;7.70;99.90;;;;;;5033628;28;20014;-78
2023/04/12 05:30:26;;;;;;;;;;;7.70;99.90;;;;;;5010615;28;215801;-78
2023/04/12 05:32:52;;;;;;;;;;;7.70;99.90;;;;;;5032286;28;19927;-78
2023/04/12 05:35:18;;;;;;;;;;;7.70;99.90;;;;;;4999935;28;207698;-79
2023/04/12 05:37:44;;;;;;;;;;;7.70;99.90;;;;;;5034872;28;19939;-77
2023/04/12 05:40:10;;;;;;;;;;;7.70;99.90;;;;;;5012613;28;208742;-79
2023/04/12 05:42:36;;;;;;;;;;;7.80;99.90;;;;;;5040696;28;21095;-77
2023/04/12 05:45:05;;;;;;;;;;;7.70;99.90;;;;;;5015972;28;215143;-78
2023/04/12 05:47:31;;;;;;;;;;;7.70;99.90;;;;;;5030410;28;20257;-76
2023/04/12 05:49:57;;;;;;;;;;;7.70;99.90;;;;;;5045264;28;207311;-78
2023/04/12 05:52:23;;;;;;;;;;;7.70;99.90;;;;;;5014989;28;26121;-80
2023/04/12 05:54:51;;;;;;;;;;;7.70;99.90;;;;;;5077796;28;19920;-78
2023/04/12 05:57:17;;;;;;;;;;;7.80;99.90;;;;;;5018617;28;215331;-78
2023/04/12 05:59:43;;;;;;;;;;;7.80;99.90;;;;;;5059910;28;19920;-72
2023/04/12 06:02:09;;;;;;;;;;;7.70;99.90;;;;;;5007966;28;207207;-75
2023/04/12 06:04:37;;;;;;;;;;;7.70;99.90;;;;;;5051663;28;19931;-75
2023/04/12 06:07:04;;;;;;;;;;;7.70;99.90;;;;;;4992481;28;251812;-76
2023/04/12 06:09:30;;;;;;;;;;;7.70;99.90;;;;;;5050250;28;20305;-77
2023/04/12 06:11:56;;;;;;;;;;;7.70;99.90;;;;;;4944126;28;1838238;-76
2023/04/12 06:14:22;;;;;;;;;;;7.70;99.90;;;;;;5072694;28;20369;-76
2023/04/12 06:16:48;;;;;;;;;;;7.70;99.90;;;;;;4982496;28;195093;-75
2023/04/12 06:19:14;;;;;;;;;;;7.70;99.90;;;;;;5065392;28;19955;-75
2023/04/12 06:21:40;;;;;;;;;;;7.70;99.90;;;;;;5021934;28;208744;-76
2023/04/12 06:24:06;;;;;;;;;;;7.70;99.90;;;;;;5062231;28;19935;-75
2023/04/12 06:26:32;;;;;;;;;;;7.70;99.90;;;;;;4997579;28;209875;-76
2023/04/12 06:28:58;;;;;;;;;;;7.70;99.90;;;;;;5043596;28;20035;-76
2023/04/12 06:31:24;;;;;;;;;;;7.70;99.90;;;;;;5025123;28;205170;-75
2023/04/12 06:33:50;;;;;;;;;;;7.70;99.90;;;;;;5030223;28;19924;-75
2023/04/12 06:36:16;;;;;;;;;;;7.70;99.90;;;;;;5014826;28;73368;-75
2023/04/12 06:38:42;;;;;;;;;;;7.70;99.90;;;;;;5066522;28;19928;-75
2023/04/12 06:41:08;;;;;;;;;;;7.60;99.90;;;;;;5022063;28;206756;-76
2023/04/12 06:43:34;;;;;;;;;;;7.70;99.90;;;;;;5048763;28;19935;-76
2023/04/12 06:46:03;;;;;;;;;;;7.60;99.90;;;;;;4982294;28;147949;-75
2023/04/12 06:48:29;;;;;;;;;;;7.60;99.90;;;;;;5064498;28;19932;-75
2023/04/12 06:50:55;;;;;;;;;;;7.60;99.90;;;;;;5020338;28;209191;-76
2023/04/12 06:53:21;;;;;;;;;;;7.70;99.90;;;;;;5037123;28;19924;-75
2023/04/12 06:55:47;;;;;;;;;;;7.70;99.90;;;;;;5006393;28;243825;-75
2023/04/12 06:58:13;;;;;;;;;;;7.60;99.90;;;;;;5052554;28;19946;-76
2023/04/12 07:00:39;;;;;;;;;;;7.60;99.90;;;;;;4969874;28;206297;-74
2023/04/12 07:03:05;;;;;;;;;;;7.70;99.90;;;;;;5077577;28;19924;-73
2023/04/12 07:05:31;;;;;;;;;;;7.60;99.90;;;;;;5018922;28;211681;-75
2023/04/12 07:07:57;;;;;;;;;;;7.60;99.90;;;;;;5072071;28;19924;-74
2023/04/12 07:10:23;;;;;;;;;;;7.60;99.90;;;;;;5003474;28;208506;-71
2023/04/12 07:12:50;;;;;;;;;;;7.60;99.90;;;;;;5076695;28;19925;-74
2023/04/12 07:15:16;;;;;;;;;;;7.60;99.90;;;;;;5006035;28;228442;-76
2023/04/12 07:17:42;;;;;;;;;;;7.50;99.90;;;;;;5076845;28;20347;-75
2023/04/12 07:20:08;;;;;;;;;;;7.60;99.90;;;;;;5001024;28;207771;-74
2023/04/12 07:22:34;;;;;;;;;;;7.50;99.90;;;;;;5077211;28;19929;-75
2023/04/12 07:25:00;;;;;;;;;;;7.50;99.90;;;;;;5030973;28;205212;-74
2023/04/12 07:27:26;;;;;;;;;;;7.50;99.90;;;;;;5045858;28;272903;-72
2023/04/12 07:29:53;;;;;;;;;;;7.50;99.90;;;;;;5061891;28;19924;-73
2023/04/12 07:32:19;;;;;;;;;;;7.50;99.90;;;;;;4995905;28;213819;-75
2023/04/12 07:34:48;;;;;;;;;;;7.50;99.90;;;;;;5080474;28;19928;-73
2023/04/12 07:37:14;;;;;;;;;;;7.50;99.90;;;;;;5024675;28;29360;-74
2023/04/12 07:39:40;;;;;;;;;;;7.60;99.90;;;;;;5047135;28;20405;-72
2023/04/12 07:42:06;;;;;;;;;;;7.60;99.90;;;;;;5009710;28;213990;-74
2023/04/12 07:44:32;;;;;;;;;;;7.60;99.90;;;;;;5044888;28;20387;-75
2023/04/12 07:46:58;;;;;;;;;;;7.60;99.90;;;;;;4996999;28;199012;-75
2023/04/12 07:49:24;;;;;;;;;;;7.60;99.90;;;;;;5062907;28;19925;-74
2023/04/12 07:51:53;;;;;;;;;;;7.60;99.90;;;;;;4995920;28;204698;-74
2023/04/12 07:54:18;;;;;;;;;;;7.60;99.90;;;;;;5047572;28;19931;-75
2023/04/12 07:56:57;;;;;;;;;;;7.70;99.90;;;;;;4993542;28;210069;-75
2023/04/12 07:59:23;;;;;;;;;;;7.60;99.90;;;;;;5022112;28;19931;-74
2023/04/12 08:01:49;;;;;;;;;;;7.60;99.90;;;;;;5003420;28;222827;-76
2023/04/12 08:04:15;;;;;;;;;;;7.60;99.90;;;;;;5063162;28;20634;-75
2023/04/12 08:06:41;;;;;;;;;;;7.60;99.90;;;;;;5015538;28;214195;-75
2023/04/12 08:09:07;;;;;;;;;;;7.60;99.90;;;;;;5066256;28;19935;-74
2023/04/12 08:11:34;;;;;;;;;;;7.60;99.90;;;;;;5011830;28;205947;-75
2023/04/12 08:14:00;;;;;;;;;;;7.60;99.90;;;;;;5068085;28;20313;-74
2023/04/12 08:16:26;;;;;;;;;;;7.70;99.90;;;;;;5020866;28;226156;-75
2023/04/12 08:18:52;;;;;;;;;;;7.80;99.90;;;;;;5065455;28;19924;-75
2023/04/12 08:21:18;;;;;;;;;;;7.80;99.90;;;;;;5018662;28;118165;-75
2023/04/12 08:23:44;;;;;;;;;;;7.70;99.90;;;;;;5069295;28;19932;-76
2023/04/12 08:26:10;;;;;;;;;;;7.80;99.90;;;;;;5019257;28;206253;-74
2023/04/12 08:28:35;;;;;;;;;;;7.80;99.90;;;;;;5057669;28;19932;-75
2023/04/12 08:31:01;;;;;;;;;;;7.80;99.90;;;;;;4987747;28;205739;-74
2023/04/12 08:33:27;;;;;;;;;;;7.70;99.90;;;;;;5056382;28;20289;-74
2023/04/12 08:35:53;;;;;;;;;;;7.70;99.90;;;;;;4990608;28;251765;-74
2023/04/12 08:38:19;;;;;;;;;;;7.80;99.90;;;;;;5048377;28;20623;-75
2023/04/12 08:40:46;;;;;;;;;;;7.80;99.90;;;;;;5014684;28;214318;-74
2023/04/12 08:43:12;;;;;;;;;;;7.70;99.90;;;;;;5060485;28;19920;-75
2023/04/12 08:45:37;;;;;;;;;;;7.80;99.90;;;;;;5015952;28;206365;-73
2023/04/12 08:48:04;;;;;;;;;;;7.70;99.90;;;;;;5063261;28;20022;-75
2023/04/12 08:50:30;;;;;;;;;;;7.80;99.90;;;;;;5015184;28;204637;-75
2023/04/12 08:52:57;;;;;;;;;;;7.80;99.90;;;;;;5072382;28;19928;-75
2023/04/12 08:55:24;;;;;;;;;;;7.80;99.90;;;;;;5025190;28;205512;-75
2023/04/12 08:57:52;;;;;;;;;;;7.70;99.90;;;;;;5048068;28;19939;-75
2023/04/12 09:00:19;;;;;;;;;;;7.80;99.90;;;;;;4985515;28;216292;-75
2023/04/12 09:02:47;;;;;;;;;;;7.90;99.90;;;;;;5022809;28;20297;-75
2023/04/12 09:05:16;;;;;;;;;;;7.90;99.90;;;;;;5015730;28;209805;-74
2023/04/12 09:07:42;;;;;;;;;;;8.00;99.90;;;;;;5060489;28;20431;-75
2023/04/12 09:10:07;;;;;;;;;;;8.10;99.90;;;;;;5010119;28;211420;-74
2023/04/12 09:12:33;;;;;;;;;;;8.10;99.90;;;;;;5048496;28;19925;-73
2023/04/12 09:15:11;;;;;;;;;;;8.20;99.90;;;;;;5045103;28;200921;-74
2023/04/12 09:17:37;;;;;;;;;;;8.20;99.90;;;;;;5021330;28;20350;-73
2023/04/12 09:20:24;;;;;;;;;;;8.30;99.90;;;;;;5012021;28;210324;-74
2023/04/12 09:22:51;;;;;;;;;;;8.40;99.90;;;;;;5057706;28;19927;-74
2023/04/12 09:25:17;;;;;;;;;;;8.40;99.90;;;;;;5016602;28;212785;-75
2023/04/12 09:27:50;;;;;;;;;;;8.40;99.90;;;;;;5062026;28;19936;-74
2023/04/12 09:30:17;;;;;;;;;;;8.60;99.90;;;;;;5022381;28;207305;-73
2023/04/12 09:32:44;;;;;;;;;;;8.60;99.90;;;;;;5065280;28;19924;-73
2023/04/12 09:35:10;;;;;;;;;;;8.80;99.90;;;;;;5016884;28;198124;-73
2023/04/12 09:37:36;;;;;;;;;;;9.10;99.90;;;;;;5060478;28;20348;-72
2023/04/12 09:40:06;;;;;;;;;;;9.40;99.90;;;;;;5022209;28;206823;-72
2023/04/12 09:42:32;;;;;;;;;;;9.70;99.90;;;;;;5031837;28;19925;-72
2023/04/12 09:45:00;;;;;;;;;;;9.80;99.90;;;;;;5039128;28;210555;-72
2023/04/12 09:47:37;;;;;;;;;;;9.90;99.90;;;;;;5021353;28;270602;-74
2023/04/12 09:50:04;;;;;;;;;;;10.00;99.90;;;;;;5014175;28;206633;-72
2023/04/12 09:52:34;;;;;;;;;;;10.00;99.90;;;;;;5063198;28;19955;-73
2023/04/12 09:55:01;;;;;;;;;;;9.80;99.90;;;;;;5042439;28;206762;-72
2023/04/12 09:57:27;;;;;;;;;;;9.60;99.90;;;;;;5022387;28;264147;-72
2023/04/12 09:59:55;;;;;;;;;;;9.70;99.90;;;;;;5065191;28;20314;-71
2023/04/12 10:02:25;;;;;;;;;;;9.70;99.90;;;;;;5007418;28;211128;-72
2023/04/12 10:04:51;;;;;;;;;;;9.80;99.90;;;;;;5065463;28;19931;-73
2023/04/12 10:07:17;;;;;;;;;;;9.80;99.90;;;;;;5021994;28;213611;-73
2023/04/12 10:09:43;;;;;;;;;;;9.90;99.90;;;;;;5059002;28;20023;-73
2023/04/12 10:12:10;;;;;;;;;;;9.80;99.90;;;;;;4988967;28;210665;-72
2023/04/12 10:14:36;;;;;;;;;;;9.70;99.90;;;;;;5062864;28;20396;-73
2023/04/12 10:17:02;;;;;;;;;;;9.80;99.90;;;;;;4999740;28;236097;-72
2023/04/12 10:19:29;;;;;;;;;;;9.90;99.90;;;;;;5062966;28;19927;-73
2023/04/12 10:21:55;;;;;;;;;;;10.00;99.90;;;;;;5015722;28;209664;-73
2023/04/12 10:24:25;;;;;;;;;;;10.10;99.90;;;;;;5043272;28;19928;-72
2023/04/12 10:26:52;;;;;;;;;;;10.60;99.90;;;;;;5009488;28;230677;-72
2023/04/12 10:29:23;;;;;;;;;;;11.10;99.90;;;;;;5058642;28;19933;-72
2023/04/12 10:31:49;;;;;;;;;;;12.00;99.90;;;;;;5014158;28;207837;-72
2023/04/12 10:34:15;;;;;;;;;;;12.80;99.90;;;;;;5065373;28;19920;-72
2023/04/12 10:36:52;;;;;;;;;;;13.50;99.90;;;;;;5017206;28;233836;-73
2023/04/12 10:39:18;;;;;;;;;;;14.20;99.90;;;;;;5051294;28;19925;-73
2023/04/12 10:42:02;;;;;;;;;;;14.30;99.90;;;;;;5011955;28;206666;-72
2023/04/12 10:44:28;;;;;;;;;;;14.50;99.90;;;;;;5077001;28;19927;-72
2023/04/12 10:46:54;;;;;;;;;;;14.50;99.90;;;;;;5011290;28;211108;-73
2023/04/12 10:49:20;;;;;;;;;;;13.70;99.90;;;;;;5062441;28;19928;-72
2023/04/12 10:52:06;;;;;;;;;;;13.40;99.90;;;;;;5000669;28;215419;-72
2023/04/12 10:54:35;;;;;;;;;;;13.50;99.90;;;;;;5057472;28;19931;-72
2023/04/12 10:57:02;;;;;;;;;;;13.80;99.90;;;;;;4988792;28;206680;-73
2023/04/12 10:59:47;;;;;;;;;;;13.40;99.90;;;;;;5059508;28;19935;-73
2023/04/12 11:02:13;;;;;;;;;;;13.40;99.90;;;;;;5000639;28;234952;-73
2023/04/12 11:04:59;;;;;;;;;;;13.20;99.90;;;;;;5050256;28;19929;-73
2023/04/12 11:07:39;;;;;;;;;;;13.30;99.90;;;;;;5012919;28;68467;-74
2023/04/12 11:10:11;;;;;;;;;;;13.40;99.90;;;;;;4995186;28;208504;-74
2023/04/12 11:12:37;;;;;;;;;;;13.90;99.90;;;;;;5050018;28;19932;-73
2023/04/12 11:15:05;;;;;;;;;;;14.20;99.90;;;;;;5007229;28;166589;-72
2023/04/12 11:17:31;;;;;;;;;;;14.20;99.90;;;;;;5050216;28;20380;-73
2023/04/12 11:20:00;;;;;;;;;;;14.90;99.90;;;;;;5034573;28;225250;-72
2023/04/12 11:22:27;;;;;;;;;;;14.60;99.90;;;;;;5015336;28;216630;-73
2023/04/12 11:25:02;;;;;;;;;;;14.80;99.90;;;;;;5050703;28;19936;-73
2023/04/12 11:27:29;;;;;;;;;;;14.80;99.90;;;;;;4962272;28;78622;-73
2023/04/12 11:29:56;;;;;;;;;;;15.00;99.90;;;;;;5040592;28;19933;-74
2023/04/12 11:32:23;;;;;;;;;;;15.10;99.90;;;;;;4993834;28;207661;-73
2023/04/12 11:34:49;;;;;;;;;;;15.40;99.90;;;;;;5041449;28;19935;-74
2023/04/12 11:37:18;;;;;;;;;;;15.10;99.90;;;;;;4988444;28;212239;-75
2023/04/12 11:39:45;;;;;;;;;;;15.00;99.90;;;;;;5059657;28;19928;-74
2023/04/12 11:42:32;;;;;;;;;;;14.40;99.90;;;;;;5004510;28;277668;-73
2023/04/12 11:44:58;;;;;;;;;;;14.10;99.90;;;;;;5026335;28;207605;-72
2023/04/12 11:47:25;;;;;;;;;;;13.90;99.90;;;;;;5025634;28;267120;-72
2023/04/12 11:49:56;;;;;;;;;;;13.50;99.90;;;;;;5081648;28;19924;-72
2023/04/12 11:52:30;;;;;;;;;;;13.30;99.90;;;;;;4992407;28;233695;-71
2023/04/12 11:54:59;;;;;;;;;;;13.20;99.90;;;;;;5054608;28;33874;-72
2023/04/12 11:57:27;;;;;;;;;;;13.00;99.90;;;;;;5010403;28;205617;-73
2023/04/12 11:59:55;;;;;;;;;;;12.90;99.90;;;;;;5057314;28;19973;-72
2023/04/12 12:02:21;;;;;;;;;;;13.00;99.90;;;;;;4982819;28;156124;-70
2023/04/12 12:04:47;;;;;;;;;;;13.10;99.90;;;;;;5056635;28;20231;-71
2023/04/12 12:07:17;;;;;;;;;;;13.20;99.90;;;;;;4988123;28;244358;-71
2023/04/12 12:09:44;;;;;;;;;;;13.20;99.90;;;;;;5059189;28;20294;-72
2023/04/12 12:12:13;;;;;;;;;;;13.30;99.90;;;;;;5007783;28;135115;-73
2023/04/12 12:14:39;;;;;;;;;;;13.40;99.90;;;;;;5058774;28;19928;-73
2023/04/12 12:17:10;;;;;;;;;;;13.50;99.90;;;;;;5016316;28;237740;-73
2023/04/12 12:19:36;;;;;;;;;;;13.50;99.90;;;;;;5061900;28;20301;-72
2023/04/12 12:22:11;;;;;;;;;;;13.50;99.90;;;;;;5019678;28;226700;-73
2023/04/12 12:24:38;;;;;;;;;;;13.70;99.90;;;;;;5062315;28;19936;-72
2023/04/12 12:27:04;;;;;;;;;;;14.00;99.80;;;;;;5012294;28;231911;-73
2023/04/12 12:29:35;;;;;;;;;;;14.50;99.90;;;;;;5058597;28;19951;-73
2023/04/12 12:32:01;;;;;;;;;;;14.80;99.40;;;;;;5016863;28;207625;-73
2023/04/12 12:34:34;;;;;;;;;;;15.10;99.80;;;;;;5058787;28;19943;-73
2023/04/12 12:37:06;;;;;;;;;;;15.10;99.50;;;;;;5021783;28;222181;-73
2023/04/12 12:39:32;;;;;;;;;;;14.90;98.00;;;;;;5060122;28;19931;-72
2023/04/12 12:41:59;;;;;;;;;;;14.60;98.10;;;;;;5002567;28;248905;-73
2023/04/12 12:44:25;;;;;;;;;;;14.30;99.50;;;;;;5056192;28;19932;-72
2023/04/12 12:46:50;;;;;;;;;;;14.00;99.90;;;;;;5008151;28;206965;-73
2023/04/12 12:49:17;;;;;;;;;;;13.90;99.30;;;;;;5059199;28;19939;-74
2023/04/12 12:51:43;;;;;;;;;;;14.20;99.00;;;;;;5001274;28;210308;-73
2023/04/12 12:54:09;;;;;;;;;;;14.50;99.00;;;;;;5073753;28;19940;-72
2023/04/12 12:56:37;;;;;;;;;;;14.80;98.20;;;;;;5006642;28;231084;-73
2023/04/12 12:59:03;;;;;;;;;;;14.90;97.50;;;;;;5062249;28;19935;-74
2023/04/12 13:01:29;;;;;;;;;;;14.70;97.20;;;;;;4978561;28;214884;-72
2023/04/12 13:03:57;;;;;;;;;;;14.60;97.70;;;;;;5055044;28;20558;-72
2023/04/12 13:06:26;;;;;;;;;;;14.30;96.70;;;;;;5008567;28;209460;-73
2023/04/12 13:08:53;;;;;;;;;;;14.20;96.80;;;;;;5053907;28;19931;-71
2023/04/12 13:11:20;;;;;;;;;;;14.30;96.50;;;;;;4988418;28;278516;-74
2023/04/12 13:13:46;;;;;;;;;;;14.40;96.40;;;;;;5057709;28;19969;-74
2023/04/12 13:16:14;;;;;;;;;;;14.30;97.50;;;;;;5003752;28;208885;-72
2023/04/12 13:18:40;;;;;;;;;;;14.20;96.20;;;;;;5052960;28;19932;-73
2023/04/12 13:21:06;;;;;;;;;;;14.00;96.30;;;;;;4998717;28;214805;-73
2023/04/12 13:23:33;;;;;;;;;;;13.90;96.00;;;;;;5047483;28;19921;-71
2023/04/12 13:25:59;;;;;;;;;;;13.60;96.30;;;;;;5007011;28;208204;-72
2023/04/12 13:28:25;;;;;;;;;;;13.40;96.40;;;;;;5057395;28;19920;-72
2023/04/12 13:30:51;;;;;;;;;;;13.40;97.90;;;;;;4993892;28;219603;-72
2023/04/12 13:33:17;;;;;;;;;;;13.50;98.30;;;;;;5054127;28;20189;-73
2023/04/12 13:35:44;;;;;;;;;;;13.50;97.00;;;;;;5000273;28;236414;-73
2023/04/12 13:38:10;;;;;;;;;;;13.40;97.90;;;;;;5059491;28;20320;-73
2023/04/12 13:40:36;;;;;;;;;;;13.60;97.40;;;;;;5006081;28;208075;-72
2023/04/12 13:43:02;;;;;;;;;;;13.70;97.50;;;;;;5069650;28;19927;-72
2023/04/12 13:45:31;;;;;;;;;;;14.00;98.40;;;;;;5030020;28;116902;-72
2023/04/12 13:47:57;;;;;;;;;;;14.00;96.90;;;;;;5059112;28;19926;-73
2023/04/12 13:50:23;;;;;;;;;;;14.00;96.90;;;;;;5008332;28;226044;-72
2023/04/12 13:52:49;;;;;;;;;;;13.80;96.90;;;;;;5070029;28;19920;-71
2023/04/12 13:55:15;;;;;;;;;;;13.40;96.40;;;;;;5002214;28;211998;-73
2023/04/12 13:57:41;;;;;;;;;;;13.30;97.20;;;;;;5045787;28;20328;-73
2023/04/12 14:00:08;;;;;;;;;;;13.10;97.80;;;;;;5004132;28;209415;-72
2023/04/12 14:02:34;;;;;;;;;;;13.00;98.20;;;;;;5056434;28;19924;-72
2023/04/12 14:05:00;;;;;;;;;;;13.00;97.60;;;;;;5023943;28;209435;-73
2023/04/12 14:07:28;;;;;;;;;;;12.80;97.80;;;;;;5023676;28;213494;-72
2023/04/12 14:09:54;;;;;;;;;;;12.60;98.90;;;;;;5058366;28;19948;-72
2023/04/12 14:12:20;;;;;;;;;;;12.40;97.20;;;;;;5022088;28;195946;-74
2023/04/12 14:14:46;;;;;;;;;;;12.30;97.80;;;;;;5061936;28;20039;-73
2023/04/12 14:17:12;;;;;;;;;;;12.30;98.30;;;;;;5019629;28;209446;-72
2023/04/12 14:19:38;;;;;;;;;;;12.30;97.90;;;;;;5042919;28;20355;-73